Time;durP1;ratioP1;P1;durP2;ratioP2;P2;SDS_P1;SDS_P2;PMS_P1;PMS_P2;Temp;Humidity;BMP_temperature;BMP_pressure;BME280_temperature;BME280_humidity;BME280_pressure;Samples;Min_cycle;Max_cycle;Signal;HPM_P1;HPM_P2
2022/04/11 00:03:41;;;;;;;4.37;2.07;;;0.50;99.90;;;;;;8297449;28;20213;-65
2022/04/11 00:07:42;;;;;;;4.20;2.47;;;0.50;99.90;;;;;;8302035;28;20214;-63
2022/04/11 00:11:43;;;;;;;4.40;2.27;;;0.50;99.90;;;;;;8295571;28;20243;-63
2022/04/11 00:15:44;;;;;;;5.17;2.80;;;0.60;99.90;;;;;;8300505;28;20231;-65
2022/04/11 00:19:45;;;;;;;5.57;2.90;;;0.60;99.90;;;;;;8298828;28;20212;-64
2022/04/11 00:23:45;;;;;;;4.87;2.87;;;0.70;99.90;;;;;;8284131;28;20203;-63
2022/04/11 00:27:46;;;;;;;5.40;2.77;;;0.80;99.90;;;;;;8280517;28;20514;-63
2022/04/11 00:31:47;;;;;;;3.10;2.53;;;1.00;99.90;;;;;;8285332;28;20204;-64
2022/04/11 00:35:48;;;;;;;5.83;3.33;;;1.10;99.90;;;;;;8280784;28;20228;-65
2022/04/11 00:39:48;;;;;;;5.40;2.97;;;1.20;99.90;;;;;;8284307;28;20214;-65
2022/04/11 00:43:49;;;;;;;5.17;2.80;;;1.20;99.90;;;;;;8287950;28;20219;-65
2022/04/11 00:47:50;;;;;;;6.23;2.77;;;1.30;99.90;;;;;;8277369;28;20230;-65
2022/04/11 00:51:51;;;;;;;4.53;2.40;;;1.30;99.90;;;;;;8294160;28;20467;-62
2022/04/11 00:55:54;;;;;;;5.23;2.60;;;1.20;99.90;;;;;;8297954;28;20302;-64
2022/04/11 00:59:55;;;;;;;3.23;2.40;;;1.20;99.90;;;;;;8280704;28;20274;-63
2022/04/11 01:03:57;;;;;;;3.17;2.40;;;1.20;99.90;;;;;;8283359;28;20443;-65
2022/04/11 01:08:06;;;;;;;6.03;2.77;;;1.20;99.90;;;;;;8283083;28;20257;-65
2022/04/11 01:12:07;;;;;;;5.13;2.53;;;1.30;99.90;;;;;;8279263;28;20567;-62
2022/04/11 01:16:08;;;;;;;4.07;2.30;;;1.40;99.90;;;;;;8286603;28;20285;-65
2022/04/11 01:20:10;;;;;;;3.40;2.50;;;1.40;99.90;;;;;;8276817;28;20206;-62
2022/04/11 01:24:11;;;;;;;4.87;2.40;;;1.50;99.90;;;;;;8275682;28;20321;-63
2022/04/11 01:28:12;;;;;;;3.50;2.60;;;1.50;99.90;;;;;;8273982;28;20250;-63
2022/04/11 01:32:13;;;;;;;4.63;2.60;;;1.50;99.90;;;;;;8281954;28;20273;-64
2022/04/11 01:36:13;;;;;;;6.20;2.53;;;1.60;99.90;;;;;;8278538;28;20222;-65
2022/04/11 01:40:14;;;;;;;6.10;2.70;;;1.60;99.90;;;;;;8282750;28;20214;-63
2022/04/11 01:44:15;;;;;;;6.00;3.13;;;1.60;99.90;;;;;;8279703;28;20229;-63
2022/04/11 01:48:16;;;;;;;5.30;2.83;;;1.60;99.90;;;;;;8281327;28;20322;-63
2022/04/11 01:52:17;;;;;;;3.27;2.50;;;1.60;99.90;;;;;;8280206;28;20199;-63
2022/04/11 01:56:18;;;;;;;6.33;2.33;;;1.60;99.90;;;;;;8277828;28;20306;-63
2022/04/11 02:00:19;;;;;;;4.37;3.00;;;1.60;99.90;;;;;;8285946;28;20209;-64
2022/04/11 02:04:20;;;;;;;4.47;2.90;;;1.60;99.90;;;;;;8288547;28;20203;-63
2022/04/11 02:08:21;;;;;;;5.77;2.40;;;1.60;99.90;;;;;;8287759;28;20238;-64
2022/04/11 02:12:21;;;;;;;3.67;2.17;;;1.60;99.90;;;;;;8289112;28;20207;-63
2022/04/11 02:16:25;;;;;;;4.67;2.47;;;1.70;99.90;;;;;;8286691;28;20254;-63
2022/04/11 02:20:26;;;;;;;5.73;2.27;;;1.70;99.90;;;;;;8286476;28;20249;-65
2022/04/11 02:24:27;;;;;;;4.43;2.53;;;1.70;99.90;;;;;;8285387;28;20249;-63
2022/04/11 02:28:28;;;;;;;8.73;2.60;;;1.80;99.90;;;;;;8298883;28;20207;-63
2022/04/11 02:32:28;;;;;;;5.43;2.60;;;1.80;99.90;;;;;;8286406;28;20261;-64
2022/04/11 02:36:29;;;;;;;3.97;1.80;;;1.90;99.90;;;;;;8299753;28;20536;-63
2022/04/11 02:40:30;;;;;;;4.90;2.00;;;1.80;99.90;;;;;;8284343;28;20215;-64
2022/04/11 02:44:31;;;;;;;8.37;2.17;;;1.80;99.90;;;;;;8281838;28;20262;-62
2022/04/11 02:48:31;;;;;;;5.90;2.30;;;1.80;99.90;;;;;;8285475;28;20202;-65
2022/04/11 02:52:32;;;;;;;4.33;1.93;;;1.80;99.90;;;;;;8289426;28;20210;-64
2022/04/11 02:56:36;;;;;;;7.30;2.23;;;1.70;99.90;;;;;;8278241;28;20231;-65
2022/04/11 03:00:37;;;;;;;4.97;2.03;;;1.70;99.90;;;;;;8286076;28;20214;-63
2022/04/11 03:04:38;;;;;;;4.90;2.10;;;1.70;99.90;;;;;;8304948;28;20198;-64
2022/04/11 03:08:38;;;;;;;3.73;1.80;;;1.60;99.90;;;;;;8285894;28;20213;-63
2022/04/11 03:12:39;;;;;;;3.47;2.20;;;1.60;99.90;;;;;;8283514;28;20212;-66
2022/04/11 03:16:41;;;;;;;6.40;1.77;;;1.60;99.90;;;;;;8294167;28;20310;-63
2022/04/11 03:20:42;;;;;;;3.23;1.90;;;1.60;99.90;;;;;;8286482;28;20263;-63
2022/04/11 03:24:43;;;;;;;3.73;1.83;;;1.70;99.90;;;;;;8300926;28;20222;-63
2022/04/11 03:28:44;;;;;;;4.53;2.00;;;1.70;99.90;;;;;;8284341;28;20317;-64
2022/04/11 03:32:44;;;;;;;3.07;1.70;;;1.70;99.90;;;;;;8300336;28;20203;-65
2022/04/11 03:36:45;;;;;;;3.40;1.90;;;1.60;99.90;;;;;;8298917;28;20223;-64
2022/04/11 03:40:46;;;;;;;2.17;1.50;;;1.60;99.90;;;;;;8284522;28;20222;-66
2022/04/11 03:44:47;;;;;;;4.43;2.23;;;1.50;99.90;;;;;;8282546;28;20634;-63
2022/04/11 03:48:47;;;;;;;3.80;1.87;;;1.40;99.90;;;;;;8286384;28;20206;-63
2022/04/11 03:52:48;;;;;;;5.57;2.00;;;1.30;99.90;;;;;;8282040;28;20301;-63
2022/04/11 03:56:49;;;;;;;3.33;1.90;;;1.20;99.90;;;;;;8283070;28;20309;-62
2022/04/11 04:00:50;;;;;;;4.03;2.13;;;1.10;99.90;;;;;;8299978;28;20251;-62
2022/04/11 04:04:50;;;;;;;3.30;1.87;;;1.00;99.90;;;;;;8290232;28;20346;-62
2022/04/11 04:08:51;;;;;;;6.33;2.20;;;0.90;99.90;;;;;;8283660;28;20209;-62
2022/04/11 04:12:57;;;;;;;4.47;2.20;;;0.80;99.90;;;;;;8286871;28;20206;-63
2022/04/11 04:16:58;;;;;;;3.97;2.17;;;0.80;99.90;;;;;;8283094;28;20234;-64
2022/04/11 04:20:59;;;;;;;3.23;2.07;;;0.80;99.90;;;;;;8282617;28;20235;-62
2022/04/11 04:25:00;;;;;;;3.20;1.97;;;0.80;99.90;;;;;;8285081;28;20649;-63
2022/04/11 04:29:00;;;;;;;2.23;1.90;;;0.80;99.90;;;;;;8279618;28;20242;-63
2022/04/11 04:33:01;;;;;;;4.70;2.00;;;0.70;99.90;;;;;;8283591;28;20218;-63
2022/04/11 04:37:02;;;;;;;3.47;2.30;;;0.70;99.90;;;;;;8282799;28;20231;-62
2022/04/11 04:41:03;;;;;;;4.13;2.77;;;0.70;99.90;;;;;;8281835;28;20227;-65
2022/04/11 04:45:05;;;;;;;4.93;2.40;;;0.70;99.90;;;;;;8281034;28;20218;-64
2022/04/11 04:49:06;;;;;;;5.23;2.40;;;0.70;99.90;;;;;;8280982;28;20213;-63
2022/04/11 04:53:07;;;;;;;6.93;2.57;;;0.80;99.90;;;;;;8284455;28;20210;-64
2022/04/11 04:57:08;;;;;;;6.37;2.83;;;0.80;99.90;;;;;;8278277;28;20328;-62
2022/04/11 05:01:08;;;;;;;4.20;2.80;;;0.80;99.90;;;;;;8282910;28;20574;-62
2022/04/11 05:05:11;;;;;;;5.63;3.30;;;0.90;99.90;;;;;;8280727;28;20502;-64
2022/04/11 05:09:12;;;;;;;4.77;3.10;;;0.90;99.90;;;;;;8278823;28;20266;-66
2022/04/11 05:13:12;;;;;;;6.43;3.47;;;1.00;99.90;;;;;;8278773;28;20215;-65
2022/04/11 05:17:13;;;;;;;11.10;4.00;;;1.20;99.90;;;;;;8281493;28;20234;-63
2022/04/11 05:21:14;;;;;;;4.27;3.43;;;1.40;99.90;;;;;;8284035;28;20203;-63
2022/04/11 05:25:15;;;;;;;7.77;4.47;;;1.60;99.90;;;;;;8282433;28;20219;-63
2022/04/11 05:29:15;;;;;;;7.77;3.93;;;1.80;99.90;;;;;;8280715;28;20557;-63
2022/04/11 05:33:16;;;;;;;7.70;3.80;;;2.10;99.90;;;;;;8280996;28;20222;-64
2022/04/11 05:37:17;;;;;;;8.53;4.07;;;2.30;99.90;;;;;;8287642;28;20257;-62
2022/04/11 05:41:18;;;;;;;8.23;3.77;;;2.50;99.90;;;;;;8287214;28;20223;-64
2022/04/11 05:45:18;;;;;;;5.87;4.07;;;2.70;99.90;;;;;;8292539;28;20213;-64
2022/04/11 05:49:23;;;;;;;6.90;3.50;;;2.90;99.90;;;;;;8284615;28;20207;-64
2022/04/11 05:53:24;;;;;;;4.57;3.50;;;3.10;99.90;;;;;;8284522;28;20235;-64
2022/04/11 05:57:24;;;;;;;6.67;3.50;;;3.20;99.90;;;;;;8285345;28;20214;-66
2022/04/11 06:01:25;;;;;;;6.20;3.40;;;3.40;99.90;;;;;;8284352;28;20210;-64
2022/04/11 06:05:26;;;;;;;6.77;4.00;;;3.50;99.90;;;;;;8283587;28;20210;-65
2022/04/11 06:09:27;;;;;;;5.77;3.87;;;3.60;99.90;;;;;;8283989;28;20195;-64
2022/04/11 06:13:28;;;;;;;9.90;3.80;;;3.60;99.90;;;;;;8302050;28;20298;-72
2022/04/11 06:17:29;;;;;;;7.07;3.57;;;3.70;99.90;;;;;;8289375;28;20210;-70
2022/04/11 06:21:30;;;;;;;8.23;3.67;;;3.80;1.00;;;;;;8293765;28;20203;-71
2022/04/11 06:25:31;;;;;;;9.53;4.70;;;3.90;99.90;;;;;;8293324;28;20207;-70
2022/04/11 06:29:32;;;;;;;10.20;4.13;;;4.10;99.90;;;;;;8294883;28;20203;-71
2022/04/11 06:33:34;;;;;;;45.97;20.03;;;4.20;1.00;;;;;;8293846;28;20223;-70
2022/04/11 06:37:35;;;;;;;13.25;5.68;;;4.20;40.00;;;;;;8291458;28;20438;-74
2022/04/11 06:41:37;;;;;;;7.47;3.23;;;4.40;99.90;;;;;;8287501;28;20441;-68
2022/04/11 06:45:37;;;;;;;40.23;16.23;;;4.60;69.60;;;;;;8295706;28;20254;-70
2022/04/11 06:49:38;;;;;;;4.90;3.23;;;4.70;1.00;;;;;;8309298;28;20208;-72
2022/04/11 06:53:39;;;;;;;6.63;2.87;;;4.90;1.00;;;;;;8294312;28;20213;-72
2022/04/11 06:57:40;;;;;;;6.97;2.57;;;5.00;1.00;;;;;;8299166;28;20277;-72
2022/04/11 07:01:42;;;;;;;8.83;3.30;;;5.10;1.00;;;;;;8297712;28;20209;-68
2022/04/11 07:05:42;;;;;;;8.23;4.80;;;5.20;14.60;;;;;;8296312;28;20214;-70
2022/04/11 07:09:43;;;;;;;5.27;2.30;;;5.40;96.60;;;;;;8296294;28;20278;-71
2022/04/11 07:13:45;;;;;;;6.40;2.72;;;5.50;1.00;;;;;;8292065;28;20444;-70
2022/04/11 07:17:45;;;;;;;6.23;2.53;;;5.60;1.00;;;;;;8288338;28;20218;-70
2022/04/11 07:21:47;;;;;;;3.40;1.47;;;5.70;1.00;;;;;;8293545;28;20206;-74
2022/04/11 07:25:48;;;;;;;2.63;1.67;;;5.70;2.60;;;;;;8312051;28;20213;-72
2022/04/11 07:29:49;;;;;;;3.63;1.90;;;5.80;99.90;;;;;;8292470;28;20202;-72
2022/04/11 07:33:50;;;;;;;4.33;1.73;;;5.90;1.00;;;;;;8291758;28;20314;-74
2022/04/11 07:37:51;;;;;;;4.60;1.83;;;6.00;42.20;;;;;;8298045;28;20263;-71
2022/04/11 07:41:55;;;;;;;5.50;1.90;;;6.30;1.00;;;;;;8293323;28;20233;-70
2022/04/11 07:45:56;;;;;;;2.63;1.60;;;6.40;99.90;;;;;;8287802;28;20305;-68
2022/04/11 07:49:56;;;;;;;3.93;2.00;;;6.40;18.40;;;;;;8291567;28;20211;-70
2022/04/11 07:53:57;;;;;;;2.13;1.73;;;6.60;99.90;;;;;;8290041;28;20288;-68
2022/04/11 07:57:58;;;;;;;3.53;1.97;;;6.90;99.90;;;;;;8291787;28;20207;-70
2022/04/11 08:01:59;;;;;;;4.73;1.83;;;7.30;1.00;;;;;;8291388;28;20199;-70
2022/04/11 08:06:00;;;;;;;2.97;1.60;;;7.50;1.00;;;;;;8294200;28;20474;-72
2022/04/11 08:10:06;;;;;;;3.03;1.27;;;7.20;1.00;;;;;;8290983;28;20203;-71
2022/04/11 08:14:07;;;;;;;4.13;1.23;;;7.30;1.00;;;;;;8288375;28;20318;-68
2022/04/11 08:18:07;;;;;;;4.60;1.83;;;7.00;1.00;;;;;;8290792;28;20198;-64
2022/04/11 08:22:08;;;;;;;3.50;1.47;;;7.70;99.90;;;;;;8282062;28;20285;-62
2022/04/11 08:26:09;;;;;;;2.73;1.60;;;8.20;1.00;;;;;;8283988;28;20206;-63
2022/04/11 08:30:12;;;;;;;3.33;1.37;;;8.20;23.90;;;;;;8282387;28;20301;-67
2022/04/11 08:34:13;;;;;;;3.60;1.40;;;8.40;99.90;;;;;;8282902;28;20239;-61
2022/04/11 08:38:14;;;;;;;4.90;1.53;;;8.40;99.90;;;;;;8283932;28;20239;-62
2022/04/11 08:42:17;;;;;;;2.60;1.90;;;8.00;1.00;;;;;;8291351;28;20615;-63
2022/04/11 08:46:17;;;;;;;7.60;3.53;;;7.80;1.00;;;;;;8282650;28;20215;-63
2022/04/11 08:50:18;;;;;;;3.43;2.23;;;7.90;99.90;;;;;;8280526;28;20202;-63
2022/04/11 08:54:20;;;;;;;3.30;2.67;;;8.00;1.00;;;;;;8284319;28;20222;-62
2022/04/11 08:58:21;;;;;;;5.27;2.00;;;7.50;99.90;;;;;;8283973;28;20202;-63
2022/04/11 09:02:33;;;;;;;4.90;2.13;;;7.50;20.00;;;;;;8287291;28;20232;-63
2022/04/11 09:06:35;;;;;;;5.77;2.27;;;8.20;1.00;;;;;;8287067;28;20377;-64
2022/04/11 09:10:37;;;;;;;2.97;1.90;;;8.20;99.90;;;;;;8283361;28;20226;-66
2022/04/11 09:14:38;;;;;;;4.17;1.37;;;8.10;1.00;;;;;;8286605;28;20215;-63
2022/04/11 09:18:50;;;;;;;2.57;1.30;;;8.00;1.00;;;;;;8280792;28;20207;-63
2022/04/11 09:22:51;;;;;;;2.93;1.60;;;7.80;99.90;;;;;;8281265;28;20225;-65
2022/04/11 09:26:56;;;;;;;1.97;1.30;;;7.90;1.00;;;;;;8288972;28;20206;-62
2022/04/11 09:31:06;;;;;;;4.33;1.50;;;8.20;1.00;;;;;;8276859;28;20213;-66
2022/04/11 09:35:09;;;;;;;1.40;1.10;;;7.90;99.90;;;;;;8284072;28;20223;-60
2022/04/11 09:39:10;;;;;;;2.30;1.67;;;7.50;1.00;;;;;;8281778;28;20218;-70
2022/04/11 09:43:13;;;;;;;2.23;1.30;;;7.60;99.90;;;;;;8285564;28;20240;-62
2022/04/11 09:47:14;;;;;;;4.93;1.40;;;7.70;99.90;;;;;;8284202;28;20461;-62
2022/04/11 09:51:15;;;;;;;2.60;1.10;;;7.80;99.90;;;;;;8298169;28;20215;-63
2022/04/11 09:55:16;;;;;;;3.60;1.63;;;8.40;71.90;;;;;;8275531;28;20258;-63
2022/04/11 09:59:18;;;;;;;3.47;1.10;;;8.60;1.00;;;;;;8279391;28;20218;-63
2022/04/11 10:03:23;;;;;;;5.53;4.50;;;9.00;1.00;;;;;;8281850;28;20225;-61
2022/04/11 10:07:23;;;;;;;8.63;4.33;;;9.70;1.00;;;;;;8291240;28;20203;-62
2022/04/11 10:11:24;;;;;;;3.10;1.70;;;10.50;1.00;;;;;;8275799;28;20219;-63
2022/04/11 10:15:25;;;;;;;3.27;1.63;;;10.50;99.90;;;;;;8279862;28;20357;-65
2022/04/11 10:19:33;;;;;;;3.70;1.77;;;10.80;99.90;;;;;;8276316;28;20286;-62
2022/04/11 10:23:43;;;;;;;1.30;0.40;;;11.10;99.90;;;;;;8283416;28;20336;-64
2022/04/11 10:27:45;;;;;;;0.80;0.80;;;11.20;99.90;;;;;;8301325;28;20213;-64
2022/04/11 10:31:46;;;;;;;2.67;0.63;;;11.00;99.90;;;;;;8281483;28;20202;-72
2022/04/11 10:35:47;;;;;;;2.00;0.80;;;10.80;99.90;;;;;;8290809;28;20227;-66
2022/04/11 10:39:48;;;;;;;2.60;0.87;;;10.40;99.90;;;;;;8290590;28;20249;-69
2022/04/11 10:44:29;;;;;;;0.80;0.53;;;10.30;99.90;;;;;;8308350;28;20232;-70
2022/04/11 10:48:57;;;;;;;2.73;0.60;;;10.90;99.90;;;;;;8292445;28;20261;-69
2022/04/11 10:53:24;;;;;;;0.93;0.43;;;11.90;99.90;;;;;;8286529;28;20211;-71
2022/04/11 10:57:53;;;;;;;3.70;0.60;;;12.30;51.90;;;;;;8291487;28;20268;-72
2022/04/11 11:01:55;;;;;;;3.23;0.97;;;11.10;72.90;;;;;;8288946;28;20211;-69
2022/04/11 11:06:17;;;;;;;1.10;0.70;;;11.00;99.90;;;;;;8278641;28;20212;-69
2022/04/11 11:10:44;;;;;;;1.70;0.67;;;11.30;99.90;;;;;;8281034;28;20210;-67
2022/04/11 11:14:45;;;;;;;2.00;0.60;;;12.10;99.90;;;;;;8284409;28;20234;-67
2022/04/11 11:18:46;;;;;;;1.93;0.80;;;12.80;99.90;;;;;;8285390;28;20203;-68
2022/04/11 11:23:13;;;;;;;1.63;0.40;;;12.00;73.10;;;;;;8298396;28;20202;-70
2022/04/11 11:27:15;;;;;;;0.97;0.60;;;12.50;30.70;;;;;;8287402;28;20233;-69
2022/04/11 11:31:18;;;;;;;1.63;0.93;;;11.20;16.30;;;;;;8290704;28;20210;-69
2022/04/11 11:35:19;;;;;;;2.57;0.80;;;10.60;42.50;;;;;;8285274;28;20293;-68
2022/04/11 11:39:22;;;;;;;1.27;0.60;;;10.30;99.60;;;;;;8281772;28;20215;-68
2022/04/11 11:43:24;;;;;;;1.40;0.57;;;9.70;60.80;;;;;;8285384;28;20218;-71
2022/04/11 11:47:28;;;;;;;1.87;0.50;;;9.60;95.50;;;;;;8285764;28;20203;-68
2022/04/11 11:51:29;;;;;;;1.67;0.57;;;9.40;99.90;;;;;;8289484;28;20229;-70
2022/04/11 11:55:30;;;;;;;1.90;0.63;;;9.40;93.80;;;;;;8289122;28;20227;-69
2022/04/11 11:59:45;;;;;;;2.30;0.70;;;9.80;99.90;;;;;;8288125;28;20221;-71
2022/04/11 12:08:07;;;;;;;2.73;0.60;;;12.00;99.90;;;;;;8284597;28;20289;-71
2022/04/11 12:12:09;;;;;;;1.00;0.60;;;11.70;29.30;;;;;;8284325;28;20237;-68
2022/04/11 12:16:19;;;;;;;2.27;0.80;;;10.90;9.90;;;;;;8285895;28;20228;-71
2022/04/11 12:20:21;;;;;;;2.00;0.60;;;10.60;55.80;;;;;;8287761;28;20213;-68
2022/04/11 12:24:30;;;;;;;0.50;0.40;;;10.90;51.70;;;;;;8285024;28;20248;-68
2022/04/11 12:28:35;;;;;;;1.03;0.47;;;11.10;31.60;;;;;;8280370;28;20257;-71
2022/04/11 12:32:39;;;;;;;1.50;0.60;;;11.40;31.20;;;;;;8286557;28;20261;-71
2022/04/11 12:37:12;;;;;;;1.57;0.40;;;11.40;16.70;;;;;;8291084;28;20235;-71
2022/04/11 12:41:31;;;;;;;1.30;0.60;;;12.20;64.60;;;;;;8275554;28;20219;-71
2022/04/11 12:45:34;;;;;;;1.20;0.67;;;11.90;1.00;;;;;;8281758;28;20279;-69
2022/04/11 12:49:52;;;;;;;2.63;1.30;;;10.90;1.00;;;;;;8282805;28;20215;-69
2022/04/11 12:54:00;;;;;;;1.47;1.07;;;10.50;11.90;;;;;;8293770;28;20212;-69
2022/04/11 12:58:10;;;;;;;1.60;0.73;;;10.80;26.70;;;;;;8281584;28;20220;-69
2022/04/11 13:02:12;;;;;;;0.70;0.50;;;10.70;1.00;;;;;;8287084;28;20208;-69
2022/04/11 13:06:12;;;;;;;1.17;0.30;;;10.40;1.00;;;;;;8282632;28;20832;-71
2022/04/11 13:10:14;;;;;;;1.37;0.43;;;10.60;32.60;;;;;;8290096;28;20220;-69
2022/04/11 13:14:15;;;;;;;1.40;0.50;;;11.00;47.10;;;;;;8284782;28;20220;-68
2022/04/11 13:18:26;;;;;;;2.00;0.73;;;11.90;30.80;;;;;;8288921;28;20240;-70
2022/04/11 13:22:27;;;;;;;0.80;0.33;;;12.40;1.00;;;;;;8287902;28;20333;-70
2022/04/11 13:26:28;;;;;;;0.60;0.47;;;12.50;1.00;;;;;;8290140;28;20206;-70
2022/04/11 13:30:29;;;;;;;2.23;0.63;;;12.00;1.00;;;;;;8289681;28;20237;-70
2022/04/11 13:34:29;;;;;;;1.00;0.60;;;12.00;1.00;;;;;;8288926;28;20222;-69
2022/04/11 13:38:30;;;;;;;1.10;0.70;;;11.40;1.00;;;;;;8291859;28;20227;-68
2022/04/11 13:42:32;;;;;;;0.60;0.40;;;10.90;1.00;;;;;;8285990;28;20204;-69
2022/04/11 13:46:34;;;;;;;0.70;0.30;;;11.10;1.00;;;;;;8278443;28;20237;-68
2022/04/11 13:50:35;;;;;;;1.80;0.60;;;11.00;1.00;;;;;;8286127;28;20211;-67
2022/04/11 13:54:36;;;;;;;0.60;0.40;;;10.80;1.00;;;;;;8285924;28;20226;-67
2022/04/11 13:58:37;;;;;;;1.60;0.60;;;10.50;1.00;;;;;;8287836;28;20308;-69
2022/04/11 14:02:38;;;;;;;2.83;0.80;;;10.50;4.10;;;;;;8289014;28;20202;-71
2022/04/11 14:06:41;;;;;;;2.20;0.80;;;10.70;12.10;;;;;;8303133;28;20324;-71
2022/04/11 14:10:44;;;;;;;1.87;0.50;;;10.70;16.00;;;;;;8300137;28;20223;-67
2022/04/11 14:14:45;;;;;;;8.07;2.93;;;10.60;7.40;;;;;;8287952;28;20243;-70
2022/04/11 14:18:46;;;;;;;0.97;0.87;;;10.70;16.60;;;;;;8291827;28;20217;-68
2022/04/11 14:22:47;;;;;;;3.33;0.80;;;10.90;6.00;;;;;;8295236;28;20202;-68
2022/04/11 14:26:48;;;;;;;2.40;0.80;;;10.50;9.10;;;;;;8297732;28;20246;-68
2022/04/11 14:30:49;;;;;;;2.67;1.07;;;10.20;37.40;;;;;;8288232;28;20234;-71
2022/04/11 14:34:50;;;;;;;6.30;2.20;;;10.10;19.40;;;;;;8300142;28;20272;-69
2022/04/11 14:38:51;;;;;;;8.77;3.60;;;10.10;16.10;;;;;;8290475;28;20221;-73
2022/04/11 14:42:51;;;;;;;1.43;1.10;;;10.20;35.10;;;;;;8287831;28;20242;-69
2022/04/11 14:46:53;;;;;;;2.27;0.87;;;10.10;30.70;;;;;;8295438;28;20249;-69
2022/04/11 14:50:54;;;;;;;2.07;0.90;;;9.90;32.90;;;;;;8286134;28;20294;-68
2022/04/11 14:54:55;;;;;;;2.87;1.00;;;9.90;53.00;;;;;;8270424;28;20228;-71
2022/04/11 14:58:56;;;;;;;1.10;0.90;;;9.90;53.90;;;;;;8292809;28;20218;-68
2022/04/11 15:02:57;;;;;;;2.73;0.73;;;9.90;61.20;;;;;;8299180;28;20257;-69
2022/04/11 15:06:57;;;;;;;2.50;1.00;;;9.90;58.90;;;;;;8288832;28;20298;-69
2022/04/11 15:10:58;;;;;;;1.37;0.80;;;10.00;46.40;;;;;;8300300;28;20215;-67
2022/04/11 15:14:59;;;;;;;3.40;1.30;;;10.20;36.70;;;;;;8303192;28;20333;-70
2022/04/11 15:19:00;;;;;;;1.33;0.70;;;10.30;43.60;;;;;;8293184;28;20207;-70
2022/04/11 15:23:01;;;;;;;2.00;1.10;;;10.50;46.60;;;;;;8286236;28;20237;-68
2022/04/11 15:27:03;;;;;;;2.37;0.80;;;10.40;38.20;;;;;;8298876;28;20452;-68
2022/04/11 15:31:05;;;;;;;1.20;0.70;;;10.30;45.00;;;;;;8281810;28;20214;-67
2022/04/11 15:35:07;;;;;;;2.50;0.70;;;10.30;47.30;;;;;;8287362;28;20323;-71
2022/04/11 15:39:07;;;;;;;2.00;0.80;;;10.30;46.40;;;;;;8293126;28;21028;-70
2022/04/11 15:43:08;;;;;;;3.83;2.00;;;10.20;40.00;;;;;;8287714;28;20346;-71
2022/04/11 15:47:09;;;;;;;4.13;1.40;;;10.10;42.90;;;;;;8286830;28;20230;-71
2022/04/11 15:51:10;;;;;;;1.60;0.83;;;10.20;49.10;;;;;;8276656;28;20207;-63
2022/04/11 15:55:11;;;;;;;2.17;1.50;;;10.20;98.40;;;;;;8287380;28;20242;-64
2022/04/11 15:59:12;;;;;;;3.27;1.50;;;10.10;57.40;;;;;;8283926;28;20203;-64
2022/04/11 16:03:13;;;;;;;4.83;1.60;;;10.00;58.80;;;;;;8278734;28;20216;-63
2022/04/11 16:07:14;;;;;;;2.77;1.30;;;10.00;68.10;;;;;;8282511;28;20215;-62
2022/04/11 16:11:15;;;;;;;1.50;0.90;;;10.00;68.90;;;;;;8280611;28;20217;-62
2022/04/11 16:15:16;;;;;;;2.73;1.60;;;9.80;94.20;;;;;;8282303;28;20219;-62
2022/04/11 16:19:19;;;;;;;3.93;1.20;;;9.60;99.90;;;;;;8283177;28;20322;-64
2022/04/11 16:23:20;;;;;;;7.80;3.87;;;9.70;99.90;;;;;;8282778;28;20206;-67
2022/04/11 16:27:22;;;;;;;4.57;2.60;;;9.70;99.90;;;;;;8282677;28;20209;-63
2022/04/11 16:31:23;;;;;;;2.80;1.77;;;9.70;96.90;;;;;;8279130;28;20252;-63
2022/04/11 16:35:24;;;;;;;4.63;2.03;;;9.70;99.90;;;;;;8282747;28;20408;-62
2022/04/11 16:39:24;;;;;;;4.30;1.70;;;9.70;99.90;;;;;;8283068;28;20280;-68
2022/04/11 16:43:25;;;;;;;2.20;1.43;;;9.70;99.90;;;;;;8278632;28;20214;-64
2022/04/11 16:47:26;;;;;;;2.20;1.10;;;9.80;99.90;;;;;;8283481;28;20207;-63
2022/04/11 16:51:27;;;;;;;2.53;0.83;;;9.70;99.90;;;;;;8283379;28;20260;-64
2022/04/11 16:55:27;;;;;;;1.63;0.90;;;9.70;99.90;;;;;;8286722;28;20222;-64
2022/04/11 16:59:28;;;;;;;1.97;1.10;;;9.60;99.90;;;;;;8280999;28;20226;-65
2022/04/11 17:03:30;;;;;;;1.30;0.57;;;9.50;99.90;;;;;;8283229;28;20214;-64
2022/04/11 17:07:31;;;;;;;0.90;0.70;;;9.40;99.90;;;;;;8280230;28;20200;-63
2022/04/11 17:11:32;;;;;;;0.60;0.57;;;9.30;99.90;;;;;;8280479;28;20202;-63
2022/04/11 17:19:56;;;;;;;1.60;0.80;;;8.80;99.90;;;;;;8279476;28;20295;-63
2022/04/11 17:23:57;;;;;;;1.40;0.80;;;8.50;99.90;;;;;;8281226;28;20203;-62
2022/04/11 17:27:58;;;;;;;0.90;0.70;;;8.20;1.00;;;;;;8288919;28;20214;-65
2022/04/11 17:32:01;;;;;;;1.03;0.70;;;7.80;1.00;;;;;;8289215;28;20207;-65
2022/04/11 17:36:03;;;;;;;1.07;0.80;;;7.50;20.60;;;;;;8276808;28;20298;-63
2022/04/11 17:40:05;;;;;;;1.47;1.10;;;7.20;99.90;;;;;;8288821;28;20242;-64
2022/04/11 17:44:06;;;;;;;0.80;0.80;;;6.90;99.90;;;;;;8303058;28;20715;-64
2022/04/11 17:48:07;;;;;;;2.00;0.90;;;6.60;99.90;;;;;;8293078;28;20221;-64
2022/04/11 17:52:08;;;;;;;1.70;1.40;;;6.30;1.00;;;;;;8296760;28;20283;-64
2022/04/11 17:56:09;;;;;;;3.03;1.63;;;5.90;99.90;;;;;;8289229;28;20222;-66
2022/04/11 18:00:13;;;;;;;1.40;1.30;;;5.60;99.90;;;;;;8290156;28;20294;-66
2022/04/11 18:04:14;;;;;;;1.60;1.37;;;5.40;1.00;;;;;;8290153;28;20207;-65
2022/04/11 18:08:15;;;;;;;1.63;1.30;;;5.10;99.90;;;;;;8286167;28;20213;-64
2022/04/11 18:12:16;;;;;;;2.87;1.13;;;4.80;1.00;;;;;;8287592;28;20203;-68
2022/04/11 18:16:18;;;;;;;1.87;1.20;;;4.60;99.90;;;;;;8292686;28;20230;-67
2022/04/11 18:20:19;;;;;;;1.27;1.17;;;4.40;99.90;;;;;;8291730;28;20207;-66
2022/04/11 18:24:21;;;;;;;2.70;2.30;;;4.20;99.90;;;;;;8291272;28;20237;-66
2022/04/11 18:32:41;;;;;;;3.60;2.80;;;3.80;99.90;;;;;;8292104;28;20216;-66
2022/04/11 18:36:42;;;;;;;5.43;3.77;;;3.50;55.70;;;;;;8305723;28;20228;-65
2022/04/11 18:40:43;;;;;;;5.10;3.50;;;3.40;99.90;;;;;;8284709;28;20225;-66
2022/04/11 18:44:44;;;;;;;6.47;2.70;;;3.20;1.00;;;;;;8285689;28;20242;-66
2022/04/11 18:48:46;;;;;;;3.67;2.00;;;3.00;99.90;;;;;;8293102;28;20249;-66
2022/04/11 18:52:47;;;;;;;4.03;2.50;;;2.80;1.00;;;;;;8290420;28;20203;-66
2022/04/11 18:56:48;;;;;;;4.33;3.50;;;2.70;1.00;;;;;;8300012;28;20230;-66
2022/04/11 19:00:49;;;;;;;7.90;7.10;;;2.60;1.00;;;;;;8282871;28;20203;-67
2022/04/11 19:04:50;;;;;;;6.40;5.80;;;2.50;1.00;;;;;;8292129;28;20659;-66
2022/04/11 19:08:50;;;;;;;3.73;3.33;;;2.30;99.90;;;;;;8301480;28;20218;-66
2022/04/11 19:12:51;;;;;;;5.67;4.37;;;2.20;1.00;;;;;;8294095;28;20237;-66
2022/04/11 19:16:52;;;;;;;5.87;4.43;;;2.00;99.90;;;;;;8300566;28;20227;-67
2022/04/11 19:20:53;;;;;;;5.10;3.83;;;1.90;99.90;;;;;;8292430;28;20225;-66
2022/04/11 19:24:54;;;;;;;25.30;17.40;;;1.80;99.90;;;;;;8292082;28;20211;-66
2022/04/11 19:28:59;;;;;;;30.90;25.87;;;1.70;1.00;;;;;;8295522;28;20213;-68
2022/04/11 19:32:59;;;;;;;40.30;36.10;;;1.50;99.90;;;;;;8286177;28;20285;-66
2022/04/11 19:37:00;;;;;;;31.83;28.37;;;1.40;1.00;;;;;;8286243;28;20684;-67
2022/04/11 19:41:01;;;;;;;20.90;17.73;;;1.30;1.00;;;;;;8299250;28;20246;-66
2022/04/11 19:45:03;;;;;;;13.87;11.70;;;1.20;1.00;;;;;;8280849;28;20218;-66
2022/04/11 19:53:24;;;;;;;4.40;3.27;;;1.00;99.90;;;;;;8278802;28;20330;-68
2022/04/11 19:57:26;;;;;;;10.70;6.70;;;0.90;99.90;;;;;;8286413;28;20226;-66
2022/04/11 20:01:27;;;;;;;30.27;21.47;;;0.80;1.00;;;;;;8280158;28;20294;-66
2022/04/11 20:05:28;;;;;;;21.83;14.83;;;0.70;1.00;;;;;;8285271;28;20482;-67
2022/04/11 20:09:29;;;;;;;39.57;27.63;;;0.70;1.00;;;;;;8287880;28;20280;-68
2022/04/11 20:13:30;;;;;;;60.43;43.97;;;0.60;1.00;;;;;;8279830;28;20213;-66
2022/04/11 20:17:31;;;;;;;43.17;32.77;;;0.50;99.90;;;;;;8281711;28;20226;-67
2022/04/11 20:21:32;;;;;;;37.90;24.30;;;0.40;99.90;;;;;;8288013;28;20309;-66
2022/04/11 20:25:33;;;;;;;14.27;8.27;;;0.40;99.90;;;;;;8288624;28;20294;-66
2022/04/11 20:29:34;;;;;;;9.30;6.20;;;0.30;99.90;;;;;;8294496;28;20217;-68
2022/04/11 20:33:35;;;;;;;10.50;6.70;;;0.30;99.90;;;;;;8287969;28;20221;-66
2022/04/11 20:37:36;;;;;;;11.97;8.13;;;0.20;99.90;;;;;;8284742;28;20329;-68
2022/04/11 20:41:40;;;;;;;12.33;7.87;;;0.10;99.90;;;;;;8294350;28;20238;-68
2022/04/11 20:45:41;;;;;;;12.47;7.30;;;0.00;1.00;;;;;;8291428;28;20268;-68
2022/04/11 20:49:42;;;;;;;14.30;9.40;;;-0.10;1.00;;;;;;8280388;28;20205;-66
2022/04/11 20:53:43;;;;;;;23.90;13.60;;;-0.10;1.00;;;;;;8294443;28;20209;-67
2022/04/11 20:57:44;;;;;;;19.40;11.37;;;-0.20;1.00;;;;;;8281902;28;20290;-68
2022/04/11 21:01:45;;;;;;;12.93;7.47;;;-0.30;1.00;;;;;;8277637;28;20206;-66
2022/04/11 21:05:47;;;;;;;9.43;6.53;;;-0.30;9.10;;;;;;8302687;28;20210;-66
2022/04/11 21:09:48;;;;;;;8.50;5.40;;;-0.40;98.80;;;;;;8286318;28;20224;-67
2022/04/11 21:13:50;;;;;;;7.50;4.87;;;-0.40;99.90;;;;;;8282629;28;20212;-66
2022/04/11 21:17:51;;;;;;;8.70;5.30;;;-0.40;99.90;;;;;;8295918;28;20261;-66
2022/04/11 21:21:52;;;;;;;9.23;5.53;;;-0.50;99.90;;;;;;8298032;28;20206;-66
2022/04/11 21:25:53;;;;;;;8.83;4.97;;;-0.60;99.90;;;;;;8280957;28;20442;-66
2022/04/11 21:29:54;;;;;;;8.10;4.83;;;-0.70;99.90;;;;;;8279966;28;20211;-68
2022/04/11 21:33:55;;;;;;;6.57;4.07;;;-0.80;99.90;;;;;;8279834;28;20211;-67